sensor_id;sensor_type;location;lat;lon;timestamp;pressure;altitude;pressure_sealevel;temperature;humidity
19761;BME280;10039;42.632;23.408;2022-11-03T00:02:17;95499.81;;;13.75;52.40
19761;BME280;10039;42.632;23.408;2022-11-03T00:04:43;95524.63;;;13.95;52.07
19761;BME280;10039;42.632;23.408;2022-11-03T00:07:08;95523.84;;;13.79;51.72
19761;BME280;10039;42.632;23.408;2022-11-03T00:09:34;95494.75;;;13.61;52.14
19761;BME280;10039;42.632;23.408;2022-11-03T00:12:00;95540.78;;;13.76;52.24
19761;BME280;10039;42.632;23.408;2022-11-03T00:14:26;95531.31;;;13.71;52.60
19761;BME280;10039;42.632;23.408;2022-11-03T00:16:51;95534.44;;;13.70;52.18
19761;BME280;10039;42.632;23.408;2022-11-03T00:19:17;95535.66;;;13.65;52.39
19761;BME280;10039;42.632;23.408;2022-11-03T00:21:43;95519.09;;;13.51;52.44
19761;BME280;10039;42.632;23.408;2022-11-03T00:24:09;95510.88;;;13.42;52.40
19761;BME280;10039;42.632;23.408;2022-11-03T00:26:35;95512.03;;;13.41;52.49
19761;BME280;10039;42.632;23.408;2022-11-03T00:29:06;95527.75;;;13.58;52.24
19761;BME280;10039;42.632;23.408;2022-11-03T00:31:34;95538.81;;;13.60;52.15
19761;BME280;10039;42.632;23.408;2022-11-03T00:34:00;95515.22;;;13.36;52.64
19761;BME280;10039;42.632;23.408;2022-11-03T00:36:29;95535.47;;;13.56;52.93
19761;BME280;10039;42.632;23.408;2022-11-03T00:38:55;95534.63;;;13.59;52.54
19761;BME280;10039;42.632;23.408;2022-11-03T00:41:21;95539.16;;;13.62;51.85
19761;BME280;10039;42.632;23.408;2022-11-03T00:43:48;95529.94;;;13.63;52.34
19761;BME280;10039;42.632;23.408;2022-11-03T00:46:15;95526.88;;;13.65;52.20
19761;BME280;10039;42.632;23.408;2022-11-03T00:48:41;95534.72;;;13.56;52.38
19761;BME280;10039;42.632;23.408;2022-11-03T00:51:16;95536.91;;;13.61;52.30
19761;BME280;10039;42.632;23.408;2022-11-03T00:56:19;95524.34;;;13.39;52.06
19761;BME280;10039;42.632;23.408;2022-11-03T00:58:45;95522.72;;;13.44;52.45
19761;BME280;10039;42.632;23.408;2022-11-03T01:01:13;95547.16;;;13.66;52.56
19761;BME280;10039;42.632;23.408;2022-11-03T01:03:40;95531.25;;;13.55;52.93
19761;BME280;10039;42.632;23.408;2022-11-03T01:06:26;95501.75;;;13.40;52.83
19761;BME280;10039;42.632;23.408;2022-11-03T01:09:10;95541.78;;;13.66;52.76
19761;BME280;10039;42.632;23.408;2022-11-03T01:11:35;95544.72;;;13.71;52.95
19761;BME280;10039;42.632;23.408;2022-11-03T01:14:13;95542.03;;;13.71;53.52
19761;BME280;10039;42.632;23.408;2022-11-03T01:16:39;95537.31;;;13.59;53.89
19761;BME280;10039;42.632;23.408;2022-11-03T01:19:07;95552.41;;;13.53;54.02
19761;BME280;10039;42.632;23.408;2022-11-03T01:21:34;95532.59;;;13.47;53.58
19761;BME280;10039;42.632;23.408;2022-11-03T01:24:00;95545.66;;;13.65;53.36
19761;BME280;10039;42.632;23.408;2022-11-03T01:26:26;95545.97;;;13.67;53.29
19761;BME280;10039;42.632;23.408;2022-11-03T01:28:52;95519.19;;;13.47;53.08
19761;BME280;10039;42.632;23.408;2022-11-03T01:31:23;95542.84;;;13.52;53.41
19761;BME280;10039;42.632;23.408;2022-11-03T01:33:50;95533.84;;;13.43;53.15
19761;BME280;10039;42.632;23.408;2022-11-03T01:36:16;95539.13;;;13.46;53.40
19761;BME280;10039;42.632;23.408;2022-11-03T01:38:43;95537.69;;;13.42;53.44
19761;BME280;10039;42.632;23.408;2022-11-03T01:41:14;95545.53;;;13.52;53.38
19761;BME280;10039;42.632;23.408;2022-11-03T01:43:41;95553.63;;;13.49;52.91
19761;BME280;10039;42.632;23.408;2022-11-03T01:46:21;95526.69;;;13.37;53.29
19761;BME280;10039;42.632;23.408;2022-11-03T01:48:56;95519.09;;;13.35;53.46
19761;BME280;10039;42.632;23.408;2022-11-03T01:51:24;95553.88;;;13.54;53.39
19761;BME280;10039;42.632;23.408;2022-11-03T01:53:53;95551.16;;;13.58;53.02
19761;BME280;10039;42.632;23.408;2022-11-03T01:56:21;95543.84;;;13.58;52.88
19761;BME280;10039;42.632;23.408;2022-11-03T01:58:49;95532.94;;;13.49;52.86
19761;BME280;10039;42.632;23.408;2022-11-03T02:01:15;95512.72;;;13.45;52.66
19761;BME280;10039;42.632;23.408;2022-11-03T02:03:50;95544.38;;;13.69;53.35
19761;BME280;10039;42.632;23.408;2022-11-03T02:06:17;95529.59;;;13.61;53.02
19761;BME280;10039;42.632;23.408;2022-11-03T02:11:47;95537.50;;;13.68;53.43
19761;BME280;10039;42.632;23.408;2022-11-03T02:14:31;95555.16;;;13.85;52.75
19761;BME280;10039;42.632;23.408;2022-11-03T02:17:00;95527.69;;;13.62;52.99
19761;BME280;10039;42.632;23.408;2022-11-03T02:19:44;95549.56;;;13.60;53.32
19761;BME280;10039;42.632;23.408;2022-11-03T02:22:41;95543.69;;;13.65;53.49
19761;BME280;10039;42.632;23.408;2022-11-03T02:26:00;95547.78;;;13.54;53.58
19761;BME280;10039;42.632;23.408;2022-11-03T02:28:04;95542.06;;;13.52;54.09
19761;BME280;10039;42.632;23.408;2022-11-03T02:30:38;95534.41;;;13.35;53.68
19761;BME280;10039;42.632;23.408;2022-11-03T02:35:58;95524.47;;;13.51;53.77
19761;BME280;10039;42.632;23.408;2022-11-03T02:38:27;95549.75;;;13.69;53.70
19761;BME280;10039;42.632;23.408;2022-11-03T02:40:56;95522.06;;;13.56;53.61
19761;BME280;10039;42.632;23.408;2022-11-03T02:43:24;95550.19;;;13.68;53.85
19761;BME280;10039;42.632;23.408;2022-11-03T02:45:51;95514.53;;;13.51;53.59
19761;BME280;10039;42.632;23.408;2022-11-03T02:48:17;95504.78;;;13.57;53.58
19761;BME280;10039;42.632;23.408;2022-11-03T02:50:43;95549.47;;;13.83;53.85
19761;BME280;10039;42.632;23.408;2022-11-03T02:53:13;95532.63;;;13.63;53.92
19761;BME280;10039;42.632;23.408;2022-11-03T03:00:57;95527.47;;;13.72;53.77
19761;BME280;10039;42.632;23.408;2022-11-03T03:03:34;95518.59;;;13.75;53.74
19761;BME280;10039;42.632;23.408;2022-11-03T03:06:07;95510.16;;;13.57;53.76
19761;BME280;10039;42.632;23.408;2022-11-03T03:08:37;95546.34;;;13.85;53.99
19761;BME280;10039;42.632;23.408;2022-11-03T03:11:05;95526.53;;;13.63;54.03
19761;BME280;10039;42.632;23.408;2022-11-03T03:13:31;95545.75;;;13.77;54.24
19761;BME280;10039;42.632;23.408;2022-11-03T03:21:17;95530.03;;;13.60;54.33
19761;BME280;10039;42.632;23.408;2022-11-03T03:23:48;95539.56;;;13.80;54.03
19761;BME280;10039;42.632;23.408;2022-11-03T03:26:29;95520.06;;;13.60;53.88
19761;BME280;10039;42.632;23.408;2022-11-03T03:29:19;95496.41;;;13.55;54.36
19761;BME280;10039;42.632;23.408;2022-11-03T03:31:52;95525.47;;;13.76;54.62
19761;BME280;10039;42.632;23.408;2022-11-03T03:34:20;95528.78;;;13.64;54.39
19761;BME280;10039;42.632;23.408;2022-11-03T03:36:50;95534.34;;;13.73;54.73
19761;BME280;10039;42.632;23.408;2022-11-03T03:39:17;95545.59;;;13.84;54.68
19761;BME280;10039;42.632;23.408;2022-11-03T03:41:45;95550.97;;;13.84;54.40
19761;BME280;10039;42.632;23.408;2022-11-03T03:44:13;95532.81;;;13.72;54.56
19761;BME280;10039;42.632;23.408;2022-11-03T03:47:04;95560.69;;;13.94;53.99
19761;BME280;10039;42.632;23.408;2022-11-03T03:49:31;95526.97;;;13.77;54.60
19761;BME280;10039;42.632;23.408;2022-11-03T03:51:56;95549.13;;;13.97;54.36
19761;BME280;10039;42.632;23.408;2022-11-03T03:54:22;95547.47;;;14.03;54.38
19761;BME280;10039;42.632;23.408;2022-11-03T03:56:58;95556.34;;;14.00;54.27
19761;BME280;10039;42.632;23.408;2022-11-03T03:59:24;95552.72;;;14.07;54.27
19761;BME280;10039;42.632;23.408;2022-11-03T04:01:50;95519.16;;;13.83;54.08
19761;BME280;10039;42.632;23.408;2022-11-03T04:04:16;95529.25;;;13.95;53.83
19761;BME280;10039;42.632;23.408;2022-11-03T04:06:41;95537.56;;;14.00;53.73
19761;BME280;10039;42.632;23.408;2022-11-03T04:09:08;95549.56;;;14.12;53.71
19761;BME280;10039;42.632;23.408;2022-11-03T04:11:33;95561.91;;;14.09;53.48
19761;BME280;10039;42.632;23.408;2022-11-03T04:14:17;95557.97;;;14.14;53.58
19761;BME280;10039;42.632;23.408;2022-11-03T04:17:01;95562.19;;;14.15;53.23
19761;BME280;10039;42.632;23.408;2022-11-03T04:19:45;95558.75;;;14.14;53.36
19761;BME280;10039;42.632;23.408;2022-11-03T04:22:31;95539.72;;;13.89;53.34
19761;BME280;10039;42.632;23.408;2022-11-03T04:24:57;95526.19;;;13.77;53.39
19761;BME280;10039;42.632;23.408;2022-11-03T04:30:17;95536.69;;;13.71;54.48
19761;BME280;10039;42.632;23.408;2022-11-03T04:32:47;95546.44;;;13.81;54.39
19761;BME280;10039;42.632;23.408;2022-11-03T04:35:19;95539.13;;;13.46;54.56
19761;BME280;10039;42.632;23.408;2022-11-03T04:38:15;95559.09;;;13.61;54.83
19761;BME280;10039;42.632;23.408;2022-11-03T04:40:54;95556.31;;;13.49;55.36
19761;BME280;10039;42.632;23.408;2022-11-03T04:43:23;95563.53;;;13.33;56.05
19761;BME280;10039;42.632;23.408;2022-11-03T04:45:53;95558.31;;;13.26;56.19
19761;BME280;10039;42.632;23.408;2022-11-03T04:48:21;95558.25;;;13.29;56.21
19761;BME280;10039;42.632;23.408;2022-11-03T04:50:49;95554.47;;;13.27;56.06
19761;BME280;10039;42.632;23.408;2022-11-03T04:53:17;95550.34;;;13.42;55.88
19761;BME280;10039;42.632;23.408;2022-11-03T04:55:46;95558.38;;;13.42;55.80
19761;BME280;10039;42.632;23.408;2022-11-03T04:58:20;95539.06;;;13.31;55.55
19761;BME280;10039;42.632;23.408;2022-11-03T05:00:49;95556.44;;;13.42;55.37
19761;BME280;10039;42.632;23.408;2022-11-03T05:03:29;95559.22;;;13.39;55.35
19761;BME280;10039;42.632;23.408;2022-11-03T05:05:55;95563.19;;;13.31;56.06
19761;BME280;10039;42.632;23.408;2022-11-03T05:08:21;95558.25;;;13.29;56.00
19761;BME280;10039;42.632;23.408;2022-11-03T05:10:48;95551.03;;;13.26;55.52
19761;BME280;10039;42.632;23.408;2022-11-03T05:15:45;95548.34;;;13.07;55.72
19761;BME280;10039;42.632;23.408;2022-11-03T05:18:34;95560.94;;;13.10;55.52
19761;BME280;10039;42.632;23.408;2022-11-03T05:21:07;95579.75;;;13.26;56.20
19761;BME280;10039;42.632;23.408;2022-11-03T05:23:43;95555.09;;;13.15;55.91
19761;BME280;10039;42.632;23.408;2022-11-03T05:26:18;95563.41;;;13.01;56.30
19761;BME280;10039;42.632;23.408;2022-11-03T05:28:51;95557.59;;;12.83;56.87
19761;BME280;10039;42.632;23.408;2022-11-03T05:31:23;95572.53;;;12.80;57.31
19761;BME280;10039;42.632;23.408;2022-11-03T05:33:50;95564.09;;;12.59;57.11
19761;BME280;10039;42.632;23.408;2022-11-03T05:36:19;95586.94;;;12.67;57.74
19761;BME280;10039;42.632;23.408;2022-11-03T05:38:46;95595.56;;;12.55;58.52
19761;BME280;10039;42.632;23.408;2022-11-03T05:41:20;95572.84;;;12.17;59.23
19761;BME280;10039;42.632;23.408;2022-11-03T05:43:53;95600.44;;;12.37;59.00
19761;BME280;10039;42.632;23.408;2022-11-03T05:46:20;95569.19;;;12.30;58.72
19761;BME280;10039;42.632;23.408;2022-11-03T05:48:46;95609.06;;;12.71;58.67
19761;BME280;10039;42.632;23.408;2022-11-03T05:51:22;95582.41;;;12.41;59.19
19761;BME280;10039;42.632;23.408;2022-11-03T05:53:55;95585.94;;;12.34;58.93
19761;BME280;10039;42.632;23.408;2022-11-03T05:56:23;95561.69;;;12.22;59.25
19761;BME280;10039;42.632;23.408;2022-11-03T05:58:58;95609.34;;;12.53;59.40
19761;BME280;10039;42.632;23.408;2022-11-03T06:01:30;95620.59;;;12.68;58.59
19761;BME280;10039;42.632;23.408;2022-11-03T06:04:24;95625.75;;;12.78;58.53
19761;BME280;10039;42.632;23.408;2022-11-03T06:07:19;95622.06;;;12.72;58.85
19761;BME280;10039;42.632;23.408;2022-11-03T06:09:51;95598.81;;;12.66;59.07
19761;BME280;10039;42.632;23.408;2022-11-03T06:12:18;95618.53;;;12.75;58.29
19761;BME280;10039;42.632;23.408;2022-11-03T06:14:45;95628.41;;;13.05;58.83
19761;BME280;10039;42.632;23.408;2022-11-03T06:17:25;95606.16;;;12.85;58.12
19761;BME280;10039;42.632;23.408;2022-11-03T06:19:53;95620.47;;;13.21;58.03
19761;BME280;10039;42.632;23.408;2022-11-03T06:22:25;95612.81;;;13.19;57.94
19761;BME280;10039;42.632;23.408;2022-11-03T06:24:57;95642.69;;;13.41;57.98
19761;BME280;10039;42.632;23.408;2022-11-03T06:27:25;95643.63;;;13.50;58.12
19761;BME280;10039;42.632;23.408;2022-11-03T06:29:56;95623.56;;;13.58;57.84
19761;BME280;10039;42.632;23.408;2022-11-03T06:32:22;95646.38;;;13.85;57.47
19761;BME280;10039;42.632;23.408;2022-11-03T06:34:53;95643.75;;;14.01;56.81
19761;BME280;10039;42.632;23.408;2022-11-03T06:37:33;95629.50;;;14.04;56.39
19761;BME280;10039;42.632;23.408;2022-11-03T06:42:53;95649.25;;;14.49;55.92
19761;BME280;10039;42.632;23.408;2022-11-03T06:45:24;95642.16;;;14.55;56.29
19761;BME280;10039;42.632;23.408;2022-11-03T06:47:51;95652.78;;;14.78;55.72
19761;BME280;10039;42.632;23.408;2022-11-03T06:50:28;95647.03;;;14.92;56.01
19761;BME280;10039;42.632;23.408;2022-11-03T06:52:57;95654.59;;;15.13;55.30
19761;BME280;10039;42.632;23.408;2022-11-03T06:55:36;95646.84;;;15.31;55.19
19761;BME280;10039;42.632;23.408;2022-11-03T06:58:22;95630.66;;;15.47;54.32
19761;BME280;10039;42.632;23.408;2022-11-03T07:00:48;95622.16;;;15.48;54.13
19761;BME280;10039;42.632;23.408;2022-11-03T07:03:20;95644.44;;;15.77;54.57
19761;BME280;10039;42.632;23.408;2022-11-03T07:05:47;95638.06;;;15.83;54.04
19761;BME280;10039;42.632;23.408;2022-11-03T07:08:25;95633.34;;;15.87;53.62
19761;BME280;10039;42.632;23.408;2022-11-03T07:11:11;95634.81;;;16.17;53.53
19761;BME280;10039;42.632;23.408;2022-11-03T07:13:40;95635.03;;;16.35;53.84
19761;BME280;10039;42.632;23.408;2022-11-03T07:16:27;95629.31;;;16.45;53.20
19761;BME280;10039;42.632;23.408;2022-11-03T07:18:54;95608.00;;;16.38;53.20
19761;BME280;10039;42.632;23.408;2022-11-03T07:21:31;95624.13;;;16.76;53.09
19761;BME280;10039;42.632;23.408;2022-11-03T07:23:59;95621.63;;;16.93;52.66
19761;BME280;10039;42.632;23.408;2022-11-03T07:26:26;95628.47;;;17.07;52.55
19761;BME280;10039;42.632;23.408;2022-11-03T07:28:53;95630.56;;;17.03;52.15
19761;BME280;10039;42.632;23.408;2022-11-03T07:31:21;95616.75;;;17.01;52.72
19761;BME280;10039;42.632;23.408;2022-11-03T07:33:48;95626.06;;;17.21;52.25
19761;BME280;10039;42.632;23.408;2022-11-03T07:36:18;95634.06;;;17.25;51.81
19761;BME280;10039;42.632;23.408;2022-11-03T07:38:47;95631.34;;;17.25;52.00
19761;BME280;10039;42.632;23.408;2022-11-03T07:41:19;95625.97;;;17.25;51.20
19761;BME280;10039;42.632;23.408;2022-11-03T07:43:54;95588.56;;;17.14;51.78
19761;BME280;10039;42.632;23.408;2022-11-03T07:46:22;95628.16;;;17.51;51.51
19761;BME280;10039;42.632;23.408;2022-11-03T07:48:53;95603.16;;;17.60;51.49
19761;BME280;10039;42.632;23.408;2022-11-03T07:53:47;95615.19;;;17.89;50.65
19761;BME280;10039;42.632;23.408;2022-11-03T07:56:24;95614.38;;;17.80;50.76
19761;BME280;10039;42.632;23.408;2022-11-03T07:58:54;95612.56;;;17.77;50.86
19761;BME280;10039;42.632;23.408;2022-11-03T08:01:30;95618.59;;;17.81;50.65
19761;BME280;10039;42.632;23.408;2022-11-03T08:03:59;95607.16;;;17.77;50.93
19761;BME280;10039;42.632;23.408;2022-11-03T08:06:26;95618.84;;;17.95;50.95
19761;BME280;10039;42.632;23.408;2022-11-03T08:08:51;95595.09;;;17.90;50.51
19761;BME280;10039;42.632;23.408;2022-11-03T08:11:17;95604.63;;;18.03;50.29
19761;BME280;10039;42.632;23.408;2022-11-03T08:13:42;95592.78;;;17.80;50.23
19761;BME280;10039;42.632;23.408;2022-11-03T08:16:08;95571.88;;;17.71;51.36
19761;BME280;10039;42.632;23.408;2022-11-03T08:18:33;95581.66;;;17.78;50.67
19761;BME280;10039;42.632;23.408;2022-11-03T08:20:59;95584.44;;;17.87;51.71
19761;BME280;10039;42.632;23.408;2022-11-03T08:23:24;95563.00;;;17.92;50.80
19761;BME280;10039;42.632;23.408;2022-11-03T08:25:50;95579.66;;;17.91;50.33
19761;BME280;10039;42.632;23.408;2022-11-03T08:28:15;95585.78;;;17.91;50.61
19761;BME280;10039;42.632;23.408;2022-11-03T08:30:41;95577.16;;;17.75;51.22
19761;BME280;10039;42.632;23.408;2022-11-03T08:33:06;95561.56;;;17.79;51.12
19761;BME280;10039;42.632;23.408;2022-11-03T08:35:32;95565.53;;;17.87;50.76
19761;BME280;10039;42.632;23.408;2022-11-03T08:37:57;95580.03;;;18.10;51.32
19761;BME280;10039;42.632;23.408;2022-11-03T08:40:23;95581.53;;;18.11;50.83
19761;BME280;10039;42.632;23.408;2022-11-03T08:42:48;95559.41;;;17.95;51.01
19761;BME280;10039;42.632;23.408;2022-11-03T08:45:14;95572.69;;;18.11;51.22
19761;BME280;10039;42.632;23.408;2022-11-03T08:47:40;95539.19;;;18.00;51.11
19761;BME280;10039;42.632;23.408;2022-11-03T08:50:06;95564.09;;;18.03;50.88
19761;BME280;10039;42.632;23.408;2022-11-03T08:52:32;95572.25;;;18.12;51.29
19761;BME280;10039;42.632;23.408;2022-11-03T08:54:57;95554.09;;;18.13;51.11
19761;BME280;10039;42.632;23.408;2022-11-03T08:57:23;95554.94;;;18.31;50.73
19761;BME280;10039;42.632;23.408;2022-11-03T08:59:48;95556.44;;;18.32;50.65
19761;BME280;10039;42.632;23.408;2022-11-03T09:02:16;95561.91;;;18.50;50.56
19761;BME280;10039;42.632;23.408;2022-11-03T09:04:41;95552.00;;;18.56;50.38
19761;BME280;10039;42.632;23.408;2022-11-03T09:07:07;95558.91;;;18.66;50.50
19761;BME280;10039;42.632;23.408;2022-11-03T09:09:32;95554.28;;;18.67;50.73
19761;BME280;10039;42.632;23.408;2022-11-03T09:11:58;95554.44;;;18.63;50.77
19761;BME280;10039;42.632;23.408;2022-11-03T09:14:23;95558.06;;;18.78;50.42
19761;BME280;10039;42.632;23.408;2022-11-03T09:16:49;95554.13;;;18.70;50.49
19761;BME280;10039;42.632;23.408;2022-11-03T09:19:14;95559.22;;;18.68;51.08
19761;BME280;10039;42.632;23.408;2022-11-03T09:21:39;95564.91;;;18.52;50.56
19761;BME280;10039;42.632;23.408;2022-11-03T09:24:05;95559.44;;;18.34;51.48
19761;BME280;10039;42.632;23.408;2022-11-03T09:26:31;95541.13;;;18.29;52.18
19761;BME280;10039;42.632;23.408;2022-11-03T09:28:56;95552.59;;;18.51;52.04
19761;BME280;10039;42.632;23.408;2022-11-03T09:31:22;95527.53;;;18.69;51.25
19761;BME280;10039;42.632;23.408;2022-11-03T09:33:52;95541.50;;;18.58;51.59
19761;BME280;10039;42.632;23.408;2022-11-03T09:36:22;95506.59;;;18.42;51.41
19761;BME280;10039;42.632;23.408;2022-11-03T09:38:48;95518.94;;;18.52;51.40
19761;BME280;10039;42.632;23.408;2022-11-03T09:41:16;95502.09;;;18.39;51.08
19761;BME280;10039;42.632;23.408;2022-11-03T09:43:46;95518.66;;;18.68;51.37
19761;BME280;10039;42.632;23.408;2022-11-03T09:46:13;95501.53;;;18.62;50.86
19761;BME280;10039;42.632;23.408;2022-11-03T09:48:40;95485.16;;;18.57;50.86
19761;BME280;10039;42.632;23.408;2022-11-03T09:51:08;95521.84;;;18.85;50.46
19761;BME280;10039;42.632;23.408;2022-11-03T09:53:37;95485.75;;;18.61;50.94
19761;BME280;10039;42.632;23.408;2022-11-03T09:56:07;95468.50;;;18.58;50.77
19761;BME280;10039;42.632;23.408;2022-11-03T09:58:34;95508.59;;;18.87;51.19
19761;BME280;10039;42.632;23.408;2022-11-03T10:01:00;95500.97;;;18.94;51.07
19761;BME280;10039;42.632;23.408;2022-11-03T10:03:25;95509.38;;;19.05;50.91
19761;BME280;10039;42.632;23.408;2022-11-03T10:05:51;95496.28;;;19.04;50.27
19761;BME280;10039;42.632;23.408;2022-11-03T10:08:28;95468.03;;;18.87;50.54
19761;BME280;10039;42.632;23.408;2022-11-03T10:10:55;95485.31;;;19.07;50.11
19761;BME280;10039;42.632;23.408;2022-11-03T10:13:41;95483.53;;;19.13;50.04
19761;BME280;10039;42.632;23.408;2022-11-03T10:16:12;95490.75;;;19.16;49.64
19761;BME280;10039;42.632;23.408;2022-11-03T10:18:39;95486.50;;;19.06;50.03
19761;BME280;10039;42.632;23.408;2022-11-03T10:21:17;95459.91;;;18.87;50.05
19761;BME280;10039;42.632;23.408;2022-11-03T10:23:42;95471.63;;;19.11;50.05
19761;BME280;10039;42.632;23.408;2022-11-03T10:26:14;95448.19;;;19.17;49.79
19761;BME280;10039;42.632;23.408;2022-11-03T10:28:58;95454.81;;;19.16;49.71
19761;BME280;10039;42.632;23.408;2022-11-03T10:31:40;95468.63;;;19.26;49.32
19761;BME280;10039;42.632;23.408;2022-11-03T10:34:37;95448.59;;;19.33;49.78
19761;BME280;10039;42.632;23.408;2022-11-03T10:37:26;95445.59;;;19.31;48.95
19761;BME280;10039;42.632;23.408;2022-11-03T10:39:57;95405.34;;;19.06;49.09
19761;BME280;10039;42.632;23.408;2022-11-03T10:42:23;95445.47;;;19.34;47.26
19761;BME280;10039;42.632;23.408;2022-11-03T10:44:54;95439.56;;;19.36;48.37
19761;BME280;10039;42.632;23.408;2022-11-03T10:47:33;95409.53;;;19.25;47.02
19761;BME280;10039;42.632;23.408;2022-11-03T10:50:23;95426.63;;;19.40;46.85
19761;BME280;10039;42.632;23.408;2022-11-03T10:52:50;95405.28;;;19.33;44.43
19761;BME280;10039;42.632;23.408;2022-11-03T10:55:17;95419.88;;;19.35;46.17
19761;BME280;10039;42.632;23.408;2022-11-03T10:57:44;95397.63;;;19.31;44.45
19761;BME280;10039;42.632;23.408;2022-11-03T11:00:16;95406.47;;;19.41;44.79
19761;BME280;10039;42.632;23.408;2022-11-03T11:02:46;95405.97;;;19.51;43.39
19761;BME280;10039;42.632;23.408;2022-11-03T11:05:18;95415.16;;;19.54;43.06
19761;BME280;10039;42.632;23.408;2022-11-03T11:07:48;95376.28;;;19.33;43.72
19761;BME280;10039;42.632;23.408;2022-11-03T11:10:17;95383.91;;;19.44;43.57
19761;BME280;10039;42.632;23.408;2022-11-03T11:18:09;95362.56;;;19.37;43.89
19761;BME280;10039;42.632;23.408;2022-11-03T11:20:43;95368.88;;;19.43;43.88
19761;BME280;10039;42.632;23.408;2022-11-03T11:28:34;95347.19;;;19.43;42.06
19761;BME280;10039;42.632;23.408;2022-11-03T11:52:56;95334.63;;;19.87;40.54
19761;BME280;10039;42.632;23.408;2022-11-03T11:55:44;95311.50;;;19.77;40.47
19761;BME280;10039;42.632;23.408;2022-11-03T11:58:16;95310.75;;;19.76;40.46
19761;BME280;10039;42.632;23.408;2022-11-03T12:00:56;95282.56;;;19.59;40.53
19761;BME280;10039;42.632;23.408;2022-11-03T12:03:36;95282.97;;;19.67;41.39
19761;BME280;10039;42.632;23.408;2022-11-03T12:06:03;95318.47;;;19.92;41.85
19761;BME280;10039;42.632;23.408;2022-11-03T12:08:30;95297.91;;;19.86;41.73
19761;BME280;10039;42.632;23.408;2022-11-03T12:11:01;95317.41;;;19.99;41.65
19761;BME280;10039;42.632;23.408;2022-11-03T12:13:45;95301.28;;;20.04;41.68
19761;BME280;10039;42.632;23.408;2022-11-03T12:18:52;95312.50;;;20.12;41.57
19761;BME280;10039;42.632;23.408;2022-11-03T12:21:44;95301.09;;;20.08;41.53
19761;BME280;10039;42.632;23.408;2022-11-03T12:26:58;95297.91;;;20.09;41.07
19761;BME280;10039;42.632;23.408;2022-11-03T12:29:24;95286.66;;;20.02;40.68
19761;BME280;10039;42.632;23.408;2022-11-03T12:31:56;95273.44;;;19.95;40.52
19761;BME280;10039;42.632;23.408;2022-11-03T12:34:25;95267.72;;;19.93;40.77
19761;BME280;10039;42.632;23.408;2022-11-03T12:36:50;95263.06;;;19.93;40.58
19761;BME280;10039;42.632;23.408;2022-11-03T12:39:15;95275.38;;;20.03;40.53
19761;BME280;10039;42.632;23.408;2022-11-03T12:41:41;95266.13;;;20.10;40.86
19761;BME280;10039;42.632;23.408;2022-11-03T12:44:06;95276.50;;;20.11;40.39
19761;BME280;10039;42.632;23.408;2022-11-03T12:46:32;95265.28;;;20.04;40.19
19761;BME280;10039;42.632;23.408;2022-11-03T12:48:57;95259.50;;;20.11;40.32
19761;BME280;10039;42.632;23.408;2022-11-03T12:51:24;95277.84;;;20.16;40.72
19761;BME280;10039;42.632;23.408;2022-11-03T12:53:50;95272.31;;;20.25;40.14
19761;BME280;10039;42.632;23.408;2022-11-03T12:56:17;95246.50;;;20.00;40.37
19761;BME280;10039;42.632;23.408;2022-11-03T12:58:43;95271.22;;;20.17;40.35
19761;BME280;10039;42.632;23.408;2022-11-03T13:01:11;95231.84;;;19.83;39.93
19761;BME280;10039;42.632;23.408;2022-11-03T13:03:37;95237.09;;;19.87;40.48
19761;BME280;10039;42.632;23.408;2022-11-03T13:06:04;95271.91;;;20.03;40.34
19761;BME280;10039;42.632;23.408;2022-11-03T13:08:30;95247.63;;;20.08;40.21
19761;BME280;10039;42.632;23.408;2022-11-03T13:10:56;95234.47;;;19.92;40.39
19761;BME280;10039;42.632;23.408;2022-11-03T13:13:24;95243.31;;;20.02;39.80
19761;BME280;10039;42.632;23.408;2022-11-03T13:15:51;95259.03;;;20.27;39.20
19761;BME280;10039;42.632;23.408;2022-11-03T13:18:20;95260.94;;;20.35;39.44
19761;BME280;10039;42.632;23.408;2022-11-03T13:20:46;95226.69;;;20.09;39.72
19761;BME280;10039;42.632;23.408;2022-11-03T13:23:11;95253.09;;;20.37;39.49
19761;BME280;10039;42.632;23.408;2022-11-03T13:25:37;95257.41;;;20.43;39.48
19761;BME280;10039;42.632;23.408;2022-11-03T13:28:03;95254.13;;;20.39;39.42
19761;BME280;10039;42.632;23.408;2022-11-03T13:30:29;95223.25;;;20.23;39.19
19761;BME280;10039;42.632;23.408;2022-11-03T13:32:55;95258.69;;;20.33;39.54
19761;BME280;10039;42.632;23.408;2022-11-03T13:38:42;95252.69;;;20.30;39.39
19761;BME280;10039;42.632;23.408;2022-11-03T13:41:08;95233.41;;;19.99;38.99
19761;BME280;10039;42.632;23.408;2022-11-03T13:43:33;95252.13;;;20.26;39.58
19761;BME280;10039;42.632;23.408;2022-11-03T13:45:59;95233.44;;;20.28;39.02
19761;BME280;10039;42.632;23.408;2022-11-03T13:48:29;95235.56;;;20.24;39.40
19761;BME280;10039;42.632;23.408;2022-11-03T13:50:54;95239.72;;;20.33;39.19
19761;BME280;10039;42.632;23.408;2022-11-03T13:53:21;95239.72;;;20.33;40.18
19761;BME280;10039;42.632;23.408;2022-11-03T13:55:46;95246.19;;;20.36;39.83
19761;BME280;10039;42.632;23.408;2022-11-03T13:58:12;95212.13;;;20.06;39.57
19761;BME280;10039;42.632;23.408;2022-11-03T14:00:37;95211.63;;;20.08;39.74
19761;BME280;10039;42.632;23.408;2022-11-03T14:03:03;95246.16;;;20.22;39.97
19761;BME280;10039;42.632;23.408;2022-11-03T14:05:28;95217.94;;;19.90;40.12
19761;BME280;10039;42.632;23.408;2022-11-03T14:07:54;95227.66;;;19.97;40.43
19761;BME280;10039;42.632;23.408;2022-11-03T14:10:19;95247.72;;;20.14;40.46
19761;BME280;10039;42.632;23.408;2022-11-03T14:12:45;95247.91;;;20.10;39.80
19761;BME280;10039;42.632;23.408;2022-11-03T14:15:11;95248.84;;;20.07;40.36
19761;BME280;10039;42.632;23.408;2022-11-03T14:17:37;95243.63;;;19.95;40.05